Current Weather

Steven a Bean Muni

Steven a Bean Muni, Maine (K8B0)

Report from: Wednesday, September 28, 2022 6:15 AM EDT
Current time: Wednesday, September 28, 2022 6:44 AM EDT

Nearby weather
Weather history
Weather forecast

Present weatherMist
Temperature9.0°C (48.2°F)
Dew point9.0°C (48.2°F)
Winds Calm
Visibility6 mi. (9.7 km)
Clouds Ceiling: Overcast 300 ft. (91 m)
Altimeter29.92 in.Hg (1013 mB)
Relative humidity100 %
Density altitude-554 ft. (-169 m)
Remarks Fully automated report
Automated weather observing station with precipitation discriminator
Flight conditions Low Instrument Meteorological Conditions
Raw dataK8B0 281015Z AUTO 00000KT 6SM BR OVC003 09/09 A2992 RMK AO2
An error has occurred. This application may no longer respond until reloaded. Reload 🗙